createdAt,value
2023-04-15T00:00:49.049Z,11.07
2023-04-15T00:02:19.561Z,11.65
2023-04-15T00:03:44.478Z,12.18
2023-04-15T00:05:13.568Z,11.90
2023-04-15T00:06:37.850Z,11.40
2023-04-15T00:08:01.409Z,12.38
2023-04-15T00:09:24.925Z,11.93
2023-04-15T00:10:48.623Z,12.40
2023-04-15T00:12:12.917Z,12.18
2023-04-15T00:13:35.300Z,12.23
2023-04-15T00:14:58.921Z,13.10
2023-04-15T00:16:21.394Z,12.25
2023-04-15T00:17:44.879Z,11.45
2023-04-15T00:19:12.250Z,12.45
2023-04-15T00:20:35.902Z,12.63
2023-04-15T00:21:59.293Z,12.90
2023-04-15T00:23:22.048Z,13.13
2023-04-15T00:24:45.490Z,12.90
2023-04-15T00:26:08.583Z,12.45
2023-04-15T00:27:32.026Z,12.95
2023-04-15T00:28:54.481Z,13.15
2023-04-15T00:30:18.487Z,13.93
2023-04-15T00:31:42.123Z,13.55
2023-04-15T00:33:07.250Z,13.30
2023-04-15T00:34:32.511Z,14.18
2023-04-15T00:35:54.938Z,13.52
2023-04-15T00:37:18.362Z,13.00
2023-04-15T00:38:42.240Z,13.00
2023-04-15T00:40:07.852Z,14.65
2023-04-15T00:41:30.231Z,14.15
2023-04-15T00:42:58.726Z,14.27
2023-04-15T00:44:22.224Z,14.48
2023-04-15T00:45:47.117Z,12.43
2023-04-15T00:47:11.052Z,13.63
2023-04-15T00:48:34.594Z,13.27
2023-04-15T00:49:58.354Z,13.88
2023-04-15T00:51:21.804Z,14.95
2023-04-15T00:52:45.543Z,14.52
2023-04-15T00:54:07.990Z,15.07
2023-04-15T00:55:31.412Z,14.77
2023-04-15T00:56:54.809Z,15.25
2023-04-15T00:58:17.439Z,14.93
2023-04-15T00:59:41.101Z,14.73
2023-04-15T01:01:04.627Z,14.13
2023-04-15T01:02:28.275Z,15.02
2023-04-15T01:03:52.135Z,14.65
2023-04-15T01:05:18.592Z,14.55
2023-04-15T01:06:41.920Z,13.70
2023-04-15T01:08:05.517Z,14.82
2023-04-15T01:09:28.919Z,14.60
2023-04-15T01:10:51.308Z,13.85
2023-04-15T01:12:17.189Z,13.68
2023-04-15T01:13:40.727Z,15.02
2023-04-15T01:15:04.499Z,15.40
2023-04-15T01:16:28.775Z,15.90
2023-04-15T01:17:52.859Z,15.50
2023-04-15T01:19:18.780Z,14.18
2023-04-15T01:20:42.668Z,15.38
2023-04-15T01:22:06.371Z,14.13
2023-04-15T01:23:28.936Z,16.00
2023-04-15T01:24:59.204Z,14.25
2023-04-15T01:26:24.354Z,16.75
2023-04-15T01:27:47.609Z,15.82
2023-04-15T01:29:11.144Z,14.60
2023-04-15T01:30:35.170Z,16.13
2023-04-15T01:31:58.739Z,15.02
2023-04-15T01:33:21.338Z,16.38
2023-04-15T01:34:44.735Z,15.52
2023-04-15T01:36:08.639Z,15.10
2023-04-15T01:37:32.486Z,16.85
2023-04-15T01:38:56.494Z,15.90
2023-04-15T01:40:21.564Z,15.65
2023-04-15T01:41:45.410Z,15.02
2023-04-15T01:43:09.327Z,16.58
2023-04-15T01:44:32.733Z,16.80
2023-04-15T01:45:57.434Z,16.30
2023-04-15T01:47:20.847Z,15.48
2023-04-15T01:48:43.274Z,16.40
2023-04-15T01:50:08.464Z,16.95
2023-04-15T01:51:32.045Z,16.02
2023-04-15T01:52:55.515Z,15.35
2023-04-15T01:54:18.913Z,16.33
2023-04-15T01:55:41.282Z,16.20
2023-04-15T01:57:06.168Z,14.60
2023-04-15T01:58:29.532Z,16.75
2023-04-15T01:59:52.008Z,15.63
2023-04-15T02:01:16.941Z,15.50
2023-04-15T02:02:39.724Z,16.67
2023-04-15T02:04:03.448Z,15.98
2023-04-15T02:05:26.005Z,16.73
2023-04-15T02:06:49.342Z,16.83
2023-04-15T02:08:13.417Z,16.67
2023-04-15T02:09:35.817Z,16.88
2023-04-15T02:10:59.183Z,17.48
2023-04-15T02:12:22.964Z,17.63
2023-04-15T02:13:47.202Z,17.40
2023-04-15T02:15:10.492Z,16.63
2023-04-15T02:16:34.310Z,16.30
2023-04-15T02:17:57.001Z,16.75
2023-04-15T02:19:20.456Z,16.90
2023-04-15T02:20:44.559Z,16.90
2023-04-15T02:22:07.730Z,16.85
2023-04-15T02:23:31.178Z,15.98
2023-04-15T02:24:53.665Z,16.05
2023-04-15T02:26:17.178Z,16.83
2023-04-15T02:27:41.930Z,16.40
2023-04-15T02:29:05.732Z,16.88
2023-04-15T02:30:28.215Z,16.45
2023-04-15T02:31:51.640Z,15.77
2023-04-15T02:33:15.030Z,15.55
2023-04-15T02:34:39.253Z,15.38
2023-04-15T02:36:02.724Z,16.33
2023-04-15T02:37:27.539Z,16.08
2023-04-15T02:38:50.950Z,16.80
2023-04-15T02:40:14.825Z,18.35
2023-04-15T02:41:38.252Z,16.45
2023-04-15T02:43:03.061Z,18.20
2023-04-15T02:44:25.612Z,15.88
2023-04-15T02:45:49.082Z,16.10
2023-04-15T02:47:14.157Z,17.33
2023-04-15T02:48:36.896Z,16.00
2023-04-15T02:50:01.658Z,16.58
2023-04-15T02:51:25.918Z,16.10
2023-04-15T02:52:49.620Z,17.10
2023-04-15T02:54:13.193Z,16.92
2023-04-15T02:55:36.835Z,16.30
2023-04-15T02:57:00.204Z,16.33
2023-04-15T02:58:25.016Z,16.17
2023-04-15T02:59:48.448Z,15.57
2023-04-15T03:01:11.691Z,16.65
2023-04-15T03:02:36.365Z,15.82
2023-04-15T03:03:59.022Z,17.73
2023-04-15T03:05:24.529Z,17.13
2023-04-15T03:06:47.946Z,15.88
2023-04-15T03:08:11.331Z,16.33
2023-04-15T03:09:36.185Z,15.95
2023-04-15T03:11:00.911Z,16.80
2023-04-15T03:12:24.368Z,17.00
2023-04-15T03:13:49.550Z,15.13
2023-04-15T03:15:13.353Z,17.02
2023-04-15T03:16:36.797Z,15.10
2023-04-15T03:18:00.424Z,14.75
2023-04-15T03:19:23.860Z,14.70
2023-04-15T03:20:48.041Z,16.00
2023-04-15T03:22:11.467Z,16.05
2023-04-15T03:23:34.868Z,15.05
2023-04-15T03:24:58.338Z,16.63
2023-04-15T03:26:29.279Z,15.55
2023-04-15T03:27:52.929Z,15.27
2023-04-15T03:29:16.662Z,15.88
2023-04-15T03:30:40.053Z,16.13
2023-04-15T03:32:02.506Z,17.33
2023-04-15T03:33:26.065Z,17.55
2023-04-15T03:34:49.477Z,15.25
2023-04-15T03:36:12.883Z,15.88
2023-04-15T03:37:36.808Z,15.60
2023-04-15T03:38:59.408Z,15.98
2023-04-15T03:40:23.313Z,14.65
2023-04-15T03:41:45.723Z,15.10
2023-04-15T03:43:09.158Z,15.38
2023-04-15T03:44:32.949Z,16.27
2023-04-15T03:45:56.387Z,15.35
2023-04-15T03:47:18.773Z,17.05
2023-04-15T03:48:42.178Z,15.55
2023-04-15T03:50:05.240Z,15.10
2023-04-15T03:51:28.635Z,14.88
2023-04-15T03:52:52.077Z,16.15
2023-04-15T03:54:17.535Z,14.75
2023-04-15T03:55:40.953Z,14.95
2023-04-15T03:57:04.513Z,15.30
2023-04-15T03:58:27.901Z,16.83
2023-04-15T03:59:52.828Z,16.02
2023-04-15T04:01:16.461Z,14.48
2023-04-15T04:02:39.257Z,16.58
2023-04-15T04:04:02.899Z,14.63
2023-04-15T04:05:26.427Z,15.05
2023-04-15T04:06:48.849Z,14.80
2023-04-15T04:08:13.821Z,14.98
2023-04-15T04:09:39.123Z,15.02
2023-04-15T04:11:03.840Z,14.63
2023-04-15T04:12:26.309Z,14.73
2023-04-15T04:13:49.730Z,15.15
2023-04-15T04:15:13.902Z,15.60
2023-04-15T04:16:37.372Z,15.38
2023-04-15T04:17:59.879Z,15.25
2023-04-15T04:19:23.344Z,15.13
2023-04-15T04:20:46.719Z,14.13
2023-04-15T04:22:09.178Z,14.45
2023-04-15T04:23:32.585Z,14.43
2023-04-15T04:24:54.989Z,14.70
2023-04-15T04:26:18.416Z,14.80
2023-04-15T04:27:42.594Z,14.13
2023-04-15T04:29:04.976Z,14.23
2023-04-15T04:30:30.337Z,14.45
2023-04-15T04:31:53.814Z,13.93
2023-04-15T04:33:16.606Z,13.85
2023-04-15T04:34:40.003Z,14.35
2023-04-15T04:36:02.422Z,13.55
2023-04-15T04:37:25.825Z,14.55
2023-04-15T04:38:49.577Z,13.00
2023-04-15T04:40:13.125Z,13.45
2023-04-15T04:41:36.489Z,13.65
2023-04-15T04:42:59.977Z,15.07
2023-04-15T04:44:22.415Z,13.20
2023-04-15T04:45:47.322Z,14.10
2023-04-15T04:47:09.805Z,13.90
2023-04-15T04:48:33.368Z,13.80
2023-04-15T04:49:56.888Z,14.52
2023-04-15T04:51:19.297Z,14.40
2023-04-15T04:52:42.739Z,12.43
2023-04-15T04:54:06.232Z,13.68
2023-04-15T04:55:30.077Z,13.55
2023-04-15T04:56:53.475Z,14.25
2023-04-15T04:58:16.922Z,13.45
2023-04-15T04:59:39.338Z,12.75
2023-04-15T05:01:08.232Z,13.73
2023-04-15T05:02:32.446Z,12.50
2023-04-15T05:03:56.518Z,12.48
2023-04-15T05:05:19.085Z,12.48
2023-04-15T05:06:43.453Z,10.23
2023-04-15T05:08:07.136Z,11.05
2023-04-15T05:09:32.137Z,11.75
2023-04-15T05:10:55.513Z,13.15
2023-04-15T05:12:20.683Z,12.77
2023-04-15T05:13:44.139Z,11.07
2023-04-15T05:15:08.701Z,12.25
2023-04-15T05:16:33.459Z,11.55
2023-04-15T05:17:57.172Z,12.95
2023-04-15T05:19:20.630Z,11.75
2023-04-15T05:20:44.097Z,10.60
2023-04-15T05:22:07.527Z,11.75
2023-04-15T05:23:31.118Z,12.23
2023-04-15T05:24:53.642Z,12.85
2023-04-15T05:26:17.638Z,11.55
2023-04-15T05:27:41.114Z,12.00
2023-04-15T05:29:03.814Z,10.35
2023-04-15T05:30:27.474Z,11.25
2023-04-15T05:31:52.219Z,10.88
2023-04-15T05:33:15.849Z,9.55
2023-04-15T05:34:40.033Z,10.27
2023-04-15T05:36:02.460Z,10.77
2023-04-15T05:37:26.123Z,9.93
2023-04-15T05:38:49.598Z,11.00
2023-04-15T05:40:14.448Z,10.40
2023-04-15T05:41:38.078Z,11.05
2023-04-15T05:43:01.439Z,10.02
2023-04-15T05:44:24.888Z,11.10
2023-04-15T05:45:47.429Z,9.60
2023-04-15T05:47:12.189Z,9.88
2023-04-15T05:48:35.669Z,8.48
2023-04-15T05:49:59.830Z,9.80
2023-04-15T05:51:23.342Z,9.35
2023-04-15T05:52:46.915Z,10.30
2023-04-15T05:54:10.325Z,9.88
2023-04-15T05:55:32.864Z,9.57
2023-04-15T05:56:57.555Z,9.27
2023-04-15T05:58:21.101Z,9.70
2023-04-15T05:59:44.979Z,10.18
2023-04-15T06:01:07.864Z,9.90
2023-04-15T06:02:32.740Z,10.25
2023-04-15T06:03:56.853Z,9.40
2023-04-15T06:05:20.536Z,8.43
2023-04-15T06:06:43.028Z,9.90
2023-04-15T06:08:08.466Z,9.23
2023-04-15T06:09:30.937Z,8.75
2023-04-15T06:10:54.414Z,8.73
2023-04-15T06:12:17.854Z,8.57
2023-04-15T06:13:47.732Z,7.95
2023-04-15T06:15:12.001Z,8.38
2023-04-15T06:16:36.651Z,8.30
2023-04-15T06:18:01.585Z,8.73
2023-04-15T06:19:24.600Z,8.95
2023-04-15T06:20:48.063Z,8.85
2023-04-15T06:22:11.598Z,8.45
2023-04-15T06:23:35.681Z,8.20
2023-04-15T06:24:59.330Z,6.90
2023-04-15T06:26:22.712Z,7.28
2023-04-15T06:27:45.136Z,5.47
2023-04-15T06:29:08.598Z,7.97
2023-04-15T06:30:32.059Z,8.65
2023-04-15T06:31:56.499Z,7.18
2023-04-15T06:33:20.879Z,8.68
2023-04-15T06:34:44.294Z,7.95
2023-04-15T06:36:07.106Z,7.25
2023-04-15T06:37:30.523Z,8.73
2023-04-15T06:38:53.983Z,7.90
2023-04-15T06:40:23.511Z,8.50
2023-04-15T06:41:46.861Z,7.28
2023-04-15T06:43:10.416Z,8.00
2023-04-15T06:44:37.137Z,8.07
2023-04-15T06:46:00.757Z,7.45
2023-04-15T06:47:27.421Z,6.78
2023-04-15T06:48:52.505Z,7.55
2023-04-15T06:50:16.022Z,7.35
2023-04-15T06:51:38.450Z,6.10
2023-04-15T06:53:02.131Z,7.82
2023-04-15T06:54:25.771Z,7.20
2023-04-15T06:55:49.238Z,7.90
2023-04-15T06:57:12.749Z,8.00
2023-04-15T06:58:36.336Z,7.65
2023-04-15T06:59:59.751Z,7.30
2023-04-15T07:01:23.480Z,7.10
2023-04-15T07:02:46.723Z,7.53
2023-04-15T07:04:12.607Z,6.93
2023-04-15T07:05:36.568Z,5.82
2023-04-15T07:07:00.759Z,7.28
2023-04-15T07:08:25.592Z,6.32
2023-04-15T07:09:49.087Z,7.22
2023-04-15T07:11:12.479Z,4.53
2023-04-15T07:12:36.568Z,8.45
2023-04-15T07:14:00.055Z,6.35
2023-04-15T07:15:25.451Z,6.65
2023-04-15T07:16:49.031Z,7.38
2023-04-15T07:18:22.511Z,6.53
2023-04-15T07:19:47.394Z,6.80
2023-04-15T07:21:24.786Z,7.68
2023-04-15T07:22:48.258Z,5.10
2023-04-15T07:24:11.861Z,7.15
2023-04-15T07:25:35.440Z,7.38
2023-04-15T07:27:01.274Z,7.07
2023-04-15T07:28:24.977Z,7.72
2023-04-15T07:29:48.398Z,7.15
2023-04-15T07:31:11.315Z,6.43
2023-04-15T07:32:34.919Z,7.25
2023-04-15T07:33:58.568Z,5.93
2023-04-15T07:35:23.469Z,5.95
2023-04-15T07:36:50.415Z,4.22
2023-04-15T07:38:14.262Z,3.22
2023-04-15T07:39:38.078Z,5.75
2023-04-15T07:41:03.893Z,5.85
2023-04-15T07:42:27.586Z,5.22
2023-04-15T07:43:51.202Z,6.32
2023-04-15T07:45:14.632Z,6.95
2023-04-15T07:46:38.547Z,6.47
2023-04-15T07:48:02.296Z,6.65
2023-04-15T07:49:27.615Z,3.88
2023-04-15T07:50:52.786Z,4.93
2023-04-15T07:52:16.632Z,5.53
2023-04-15T07:53:40.031Z,5.55
2023-04-15T07:55:03.482Z,4.55
2023-04-15T07:56:27.789Z,2.72
2023-04-15T07:57:51.647Z,5.45
2023-04-15T07:59:15.319Z,6.57
2023-04-15T08:00:39.413Z,6.93
2023-04-15T08:02:03.354Z,7.57
2023-04-15T08:03:27.645Z,4.20
2023-04-15T08:04:51.423Z,6.50
2023-04-15T08:06:16.412Z,5.95
2023-04-15T08:07:39.943Z,5.15
2023-04-15T08:09:02.530Z,7.45
2023-04-15T08:10:26.216Z,5.85
2023-04-15T08:11:50.843Z,6.35
2023-04-15T08:13:14.442Z,7.18
2023-04-15T08:14:37.841Z,6.47
2023-04-15T08:16:20.662Z,6.85
2023-04-15T08:17:44.457Z,4.03
2023-04-15T08:19:07.962Z,4.28
2023-04-15T08:20:31.378Z,6.90
2023-04-15T08:21:56.163Z,6.90
2023-04-15T08:23:20.216Z,5.28
2023-04-15T08:24:43.726Z,6.80
2023-04-15T08:26:06.221Z,5.72
2023-04-15T08:27:29.637Z,6.97
2023-04-15T08:28:53.157Z,7.55
2023-04-15T08:30:16.618Z,7.38
2023-04-15T08:31:40.099Z,5.63
2023-04-15T08:33:03.849Z,6.78
2023-04-15T08:34:27.540Z,7.50
2023-04-15T08:35:49.947Z,6.15
2023-04-15T08:37:14.830Z,8.40
2023-04-15T08:38:37.324Z,7.30
2023-04-15T08:40:00.751Z,5.65
2023-04-15T08:41:25.247Z,7.45
2023-04-15T08:42:50.940Z,8.73
2023-04-15T08:44:16.614Z,8.20
2023-04-15T08:45:41.074Z,7.80
2023-04-15T08:47:06.086Z,8.13
2023-04-15T08:48:31.508Z,8.27
2023-04-15T08:49:57.269Z,8.27
2023-04-15T08:51:21.240Z,6.72
2023-04-15T08:52:46.679Z,8.00
2023-04-15T08:54:10.755Z,7.22
2023-04-15T08:55:34.455Z,7.28
2023-04-15T08:57:00.463Z,8.38
2023-04-15T08:58:24.638Z,7.80
2023-04-15T08:59:48.323Z,7.80
2023-04-15T09:01:13.322Z,6.97
2023-04-15T09:02:38.004Z,6.15
2023-04-15T09:04:01.995Z,7.30
2023-04-15T09:05:24.467Z,6.35
2023-04-15T09:06:47.951Z,7.95
2023-04-15T09:08:12.912Z,7.78
2023-04-15T09:09:37.471Z,8.25
2023-04-15T09:11:00.928Z,8.10
2023-04-15T09:12:24.355Z,7.07
2023-04-15T09:13:48.300Z,6.18
2023-04-15T09:15:13.743Z,7.97
2023-04-15T09:16:58.519Z,7.20
2023-04-15T09:18:30.692Z,7.38
2023-04-15T09:20:10.025Z,7.30
2023-04-15T09:21:33.801Z,8.10
2023-04-15T09:22:58.546Z,7.68
2023-04-15T09:24:22.992Z,7.75
2023-04-15T09:25:50.394Z,7.90
2023-04-15T09:27:18.341Z,7.30
2023-04-15T09:28:44.613Z,7.32
2023-04-15T09:30:11.104Z,8.35
2023-04-15T09:31:36.347Z,7.38
2023-04-15T09:33:02.161Z,7.60
2023-04-15T09:34:39.815Z,7.68
2023-04-15T09:36:05.105Z,7.18
2023-04-15T09:37:37.947Z,7.85
2023-04-15T09:39:01.792Z,7.38
2023-04-15T09:40:37.111Z,6.68
2023-04-15T09:42:07.863Z,6.88
2023-04-15T09:43:40.426Z,7.93
2023-04-15T09:45:10.576Z,7.35
2023-04-15T09:46:53.568Z,6.50
2023-04-15T09:48:44.613Z,6.38
2023-04-15T09:50:08.627Z,8.15
2023-04-15T09:51:35.835Z,7.05
2023-04-15T09:52:59.630Z,7.97
2023-04-15T09:54:22.537Z,7.53
2023-04-15T09:55:47.889Z,7.97
2023-04-15T09:57:10.745Z,7.50
2023-04-15T09:58:36.143Z,5.25
2023-04-15T09:59:59.673Z,5.75
2023-04-15T10:01:23.213Z,7.65
2023-04-15T10:02:48.129Z,7.20
2023-04-15T10:04:12.223Z,8.10
2023-04-15T10:05:36.975Z,6.25
2023-04-15T10:07:02.076Z,7.50
2023-04-15T10:08:28.152Z,7.43
2023-04-15T10:09:51.961Z,7.57
2023-04-15T10:11:18.518Z,6.82
2023-04-15T10:12:43.125Z,7.15
2023-04-15T10:14:07.340Z,7.55
2023-04-15T10:15:31.034Z,6.90
2023-04-15T10:16:55.961Z,7.13
2023-04-15T10:18:22.687Z,6.68
2023-04-15T10:19:47.121Z,5.82
2023-04-15T10:21:10.918Z,7.95
2023-04-15T10:22:34.834Z,6.45
2023-04-15T10:23:59.414Z,7.47
2023-04-15T10:25:23.388Z,8.00
2023-04-15T10:26:48.671Z,6.68
2023-04-15T10:28:12.806Z,7.95
2023-04-15T10:29:36.585Z,7.32
2023-04-15T10:31:00.761Z,6.53
2023-04-15T10:32:27.106Z,7.00
2023-04-15T10:33:51.634Z,7.57
2023-04-15T10:35:15.724Z,7.18
2023-04-15T10:36:39.324Z,6.63
2023-04-15T10:38:02.738Z,5.95
2023-04-15T10:39:44.460Z,6.57
2023-04-15T10:41:20.399Z,7.22
2023-04-15T10:42:49.585Z,6.82
2023-04-15T10:44:13.192Z,6.53
2023-04-15T10:45:38.576Z,6.78
2023-04-15T10:47:02.046Z,7.05
2023-04-15T10:48:25.876Z,6.35
2023-04-15T10:49:51.434Z,5.85
2023-04-15T10:51:15.809Z,6.50
2023-04-15T10:52:42.478Z,4.63
2023-04-15T10:54:11.246Z,4.35
2023-04-15T10:55:35.834Z,6.60
2023-04-15T10:57:10.495Z,5.82
2023-04-15T10:58:45.364Z,5.82
2023-04-15T11:00:17.804Z,4.60
2023-04-15T11:01:56.474Z,6.18
2023-04-15T11:03:37.947Z,4.40
2023-04-15T11:05:02.509Z,6.05
2023-04-15T11:06:45.950Z,5.32
2023-04-15T11:08:09.965Z,6.03
2023-04-15T11:09:33.242Z,6.60
2023-04-15T11:10:56.676Z,6.43
2023-04-15T11:12:21.696Z,6.75
2023-04-15T11:13:52.397Z,5.63
2023-04-15T11:15:31.995Z,4.80
2023-04-15T11:16:55.432Z,5.97
2023-04-15T11:18:19.935Z,4.28
2023-04-15T11:19:43.804Z,6.07
2023-04-15T11:21:09.980Z,5.70
2023-04-15T11:22:32.682Z,5.40
2023-04-15T11:23:57.007Z,5.35
2023-04-15T11:25:26.533Z,6.30
2023-04-15T11:26:50.196Z,5.82
2023-04-15T11:28:14.569Z,6.63
2023-04-15T11:29:39.300Z,6.60
2023-04-15T11:31:12.024Z,3.42
2023-04-15T11:32:39.441Z,6.07
2023-04-15T11:34:03.674Z,6.65
2023-04-15T11:35:26.647Z,5.40
2023-04-15T11:36:50.100Z,5.03
2023-04-15T11:38:15.525Z,5.75
2023-04-15T11:39:39.465Z,6.03
2023-04-15T11:41:02.994Z,7.35
2023-04-15T11:42:29.632Z,6.43
2023-04-15T11:43:59.850Z,6.55
2023-04-15T11:45:24.831Z,4.63
2023-04-15T11:46:48.405Z,5.57
2023-04-15T11:48:12.924Z,6.18
2023-04-15T11:49:41.756Z,5.47
2023-04-15T11:51:07.187Z,5.85
2023-04-15T11:52:30.725Z,6.47
2023-04-15T11:53:54.810Z,5.95
2023-04-15T11:55:18.473Z,6.13
2023-04-15T11:56:41.896Z,6.00
2023-04-15T11:58:09.976Z,6.63
2023-04-15T11:59:45.291Z,6.40
2023-04-15T12:01:12.081Z,6.90
2023-04-15T12:02:37.659Z,6.43
2023-04-15T12:04:02.401Z,6.82
2023-04-15T12:05:28.010Z,6.72
2023-04-15T12:06:52.238Z,6.60
2023-04-15T12:08:14.749Z,6.80
2023-04-15T12:09:39.834Z,5.97
2023-04-15T12:11:02.374Z,6.15
2023-04-15T12:12:29.220Z,6.93
2023-04-15T12:13:53.472Z,6.95
2023-04-15T12:15:17.034Z,6.43
2023-04-15T12:16:48.309Z,6.38
2023-04-15T12:18:19.284Z,6.95
2023-04-15T12:19:45.369Z,6.97
2023-04-15T12:21:10.884Z,6.32
2023-04-15T12:22:39.500Z,5.85
2023-04-15T12:24:05.282Z,6.72
2023-04-15T12:25:36.391Z,6.25
2023-04-15T12:27:02.852Z,5.93
2023-04-15T12:28:25.312Z,6.20
2023-04-15T12:29:48.783Z,7.18
2023-04-15T12:31:13.216Z,6.75
2023-04-15T12:32:38.549Z,6.68
2023-04-15T12:34:02.846Z,5.85
2023-04-15T12:35:26.339Z,6.60
2023-04-15T12:36:48.776Z,5.72
2023-04-15T12:38:12.203Z,6.00
2023-04-15T12:39:37.609Z,6.53
2023-04-15T12:41:00.071Z,5.60
2023-04-15T12:42:23.536Z,5.40
2023-04-15T12:43:46.695Z,4.13
2023-04-15T12:45:12.276Z,5.03
2023-04-15T12:46:35.006Z,5.13
2023-04-15T12:48:01.818Z,6.13
2023-04-15T12:49:25.793Z,5.55
2023-04-15T12:50:48.205Z,5.85
2023-04-15T12:52:11.609Z,5.85
2023-04-15T12:53:34.053Z,5.57
2023-04-15T12:54:57.446Z,5.78
2023-04-15T12:56:20.917Z,5.70
2023-04-15T12:57:45.095Z,5.88
2023-04-15T12:59:08.499Z,5.25
2023-04-15T13:00:32.370Z,4.90
2023-04-15T13:01:56.283Z,5.35
2023-04-15T13:03:21.407Z,4.97
2023-04-15T13:04:44.963Z,5.25
2023-04-15T13:06:08.311Z,4.75
2023-04-15T13:07:31.720Z,5.03
2023-04-15T13:08:58.668Z,5.28
2023-04-15T13:10:22.881Z,4.85
2023-04-15T13:11:46.344Z,5.50
2023-04-15T13:13:12.217Z,5.22
2023-04-15T13:14:35.878Z,5.32
2023-04-15T13:15:58.425Z,5.97
2023-04-15T13:17:22.038Z,5.70
2023-04-15T13:18:46.983Z,5.60
2023-04-15T13:20:11.292Z,5.40
2023-04-15T13:21:35.940Z,5.55
2023-04-15T13:22:59.884Z,4.88
2023-04-15T13:24:23.327Z,5.78
2023-04-15T13:25:47.036Z,5.32
2023-04-15T13:27:10.480Z,3.65
2023-04-15T13:28:33.924Z,4.65
2023-04-15T13:29:57.488Z,5.20
2023-04-15T13:31:22.750Z,4.38
2023-04-15T13:32:46.864Z,4.82
2023-04-15T13:34:12.991Z,5.90
2023-04-15T13:35:36.415Z,4.65
2023-04-15T13:37:00.826Z,4.85
2023-04-15T13:38:25.467Z,5.22
2023-04-15T13:39:47.881Z,5.20
2023-04-15T13:41:11.646Z,4.50
2023-04-15T13:42:34.199Z,4.65
2023-04-15T13:43:58.351Z,4.88
2023-04-15T13:45:21.864Z,5.32
2023-04-15T13:46:45.412Z,4.55
2023-04-15T13:48:09.055Z,4.55
2023-04-15T13:49:33.812Z,4.60
2023-04-15T13:50:57.298Z,4.35
2023-04-15T13:52:23.146Z,4.22
2023-04-15T13:53:47.001Z,4.95
2023-04-15T13:55:23.700Z,4.72
2023-04-15T13:56:50.537Z,4.47
2023-04-15T13:58:13.935Z,4.82
2023-04-15T13:59:37.519Z,4.30
2023-04-15T14:01:02.592Z,4.63
2023-04-15T14:02:27.654Z,5.38
2023-04-15T14:03:51.323Z,5.10
2023-04-15T14:05:17.889Z,4.60
2023-04-15T14:06:40.449Z,4.55
2023-04-15T14:08:03.965Z,5.03
2023-04-15T14:09:28.126Z,5.97
2023-04-15T14:10:51.839Z,3.40
2023-04-15T14:12:15.468Z,4.30
2023-04-15T14:13:38.959Z,4.43
2023-04-15T14:15:02.416Z,4.63
2023-04-15T14:16:25.964Z,4.15
2023-04-15T14:17:49.440Z,2.90
2023-04-15T14:19:15.237Z,3.83
2023-04-15T14:20:40.038Z,4.35
2023-04-15T14:22:03.492Z,3.63
2023-04-15T14:23:26.884Z,3.88
2023-04-15T14:24:53.117Z,4.43
2023-04-15T14:26:25.119Z,4.35
2023-04-15T14:27:48.612Z,4.03
2023-04-15T14:29:15.366Z,3.90
2023-04-15T14:30:38.878Z,3.55
2023-04-15T14:32:11.413Z,3.72
2023-04-15T14:33:37.024Z,3.70
2023-04-15T14:35:00.410Z,3.75
2023-04-15T14:36:32.075Z,4.18
2023-04-15T14:37:54.660Z,4.53
2023-04-15T14:39:18.942Z,3.63
2023-04-15T14:40:42.902Z,3.38
2023-04-15T14:42:06.559Z,3.35
2023-04-15T14:43:33.211Z,4.13
2023-04-15T14:44:56.706Z,3.63
2023-04-15T14:46:20.355Z,4.55
2023-04-15T14:47:42.910Z,3.60
2023-04-15T14:49:06.889Z,4.63
2023-04-15T14:50:30.618Z,4.40
2023-04-15T14:51:55.496Z,4.38
2023-04-15T14:53:18.888Z,3.80
2023-04-15T14:54:42.306Z,3.97
2023-04-15T14:56:06.148Z,3.95
2023-04-15T14:57:29.759Z,4.50
2023-04-15T14:58:54.180Z,4.20
2023-04-15T15:00:17.953Z,4.85
2023-04-15T15:01:41.536Z,4.10
2023-04-15T15:03:06.569Z,4.25
2023-04-15T15:04:32.967Z,4.65
2023-04-15T15:05:57.714Z,4.38
2023-04-15T15:07:22.354Z,4.72
2023-04-15T15:08:45.755Z,4.70
2023-04-15T15:10:09.837Z,4.70
2023-04-15T15:11:33.353Z,3.65
2023-04-15T15:12:56.672Z,4.20
2023-04-15T15:14:20.096Z,4.15
2023-04-15T15:15:43.987Z,3.63
2023-04-15T15:17:07.519Z,4.10
2023-04-15T15:18:31.991Z,3.75
2023-04-15T15:19:55.467Z,3.45
2023-04-15T15:21:19.267Z,3.88
2023-04-15T15:22:44.100Z,4.03
2023-04-15T15:24:07.921Z,3.45
2023-04-15T15:25:34.096Z,4.13
2023-04-15T15:26:58.125Z,4.10
2023-04-15T15:28:22.331Z,3.38
2023-04-15T15:29:45.994Z,4.00
2023-04-15T15:31:08.788Z,3.63
2023-04-15T15:32:32.393Z,3.50
2023-04-15T15:33:55.830Z,4.07
2023-04-15T15:35:19.442Z,3.83
2023-04-15T15:36:43.288Z,3.83
2023-04-15T15:38:08.661Z,3.88
2023-04-15T15:39:32.337Z,3.33
2023-04-15T15:40:56.672Z,3.80
2023-04-15T15:42:20.685Z,2.78
2023-04-15T15:43:44.097Z,3.30
2023-04-15T15:45:08.360Z,3.33
2023-04-15T15:46:33.324Z,3.08
2023-04-15T15:47:58.381Z,2.83
2023-04-15T15:49:22.003Z,3.70
2023-04-15T15:50:46.428Z,3.70
2023-04-15T15:52:10.406Z,3.40
2023-04-15T15:53:35.272Z,3.30
2023-04-15T15:54:58.801Z,3.25
2023-04-15T15:56:25.056Z,3.88
2023-04-15T15:57:48.707Z,3.38
2023-04-15T15:59:12.184Z,3.88
2023-04-15T16:00:35.717Z,3.30
2023-04-15T16:01:59.373Z,3.42
2023-04-15T16:03:23.576Z,3.47
2023-04-15T16:04:46.307Z,3.53
2023-04-15T16:06:09.872Z,3.55
2023-04-15T16:07:33.293Z,3.75
2023-04-15T16:08:58.037Z,3.50
2023-04-15T16:10:21.447Z,3.20
2023-04-15T16:11:46.006Z,3.85
2023-04-15T16:13:10.537Z,3.22
2023-04-15T16:14:32.992Z,3.40
2023-04-15T16:15:56.413Z,3.50
2023-04-15T16:17:19.910Z,3.70
2023-04-15T16:18:43.451Z,3.60
2023-04-15T16:20:08.548Z,3.97
2023-04-15T16:21:32.324Z,4.03
2023-04-15T16:22:57.102Z,3.75
2023-04-15T16:24:21.959Z,4.70
2023-04-15T16:25:46.261Z,5.13
2023-04-15T16:27:10.609Z,4.18
2023-04-15T16:28:33.983Z,5.03
2023-04-15T16:29:57.477Z,4.32
2023-04-15T16:31:20.913Z,4.18
2023-04-15T16:32:44.515Z,3.75
2023-04-15T16:34:08.267Z,3.28
2023-04-15T16:35:33.378Z,3.78
2023-04-15T16:37:00.001Z,3.55
2023-04-15T16:38:23.444Z,3.35
2023-04-15T16:39:48.222Z,4.63
2023-04-15T16:41:10.624Z,3.45
2023-04-15T16:42:34.869Z,3.53
2023-04-15T16:43:59.113Z,4.35
2023-04-15T16:45:22.554Z,3.90
2023-04-15T16:46:45.998Z,3.70
2023-04-15T16:48:09.455Z,3.70
2023-04-15T16:49:31.884Z,3.55
2023-04-15T16:50:55.378Z,3.60
2023-04-15T16:52:18.850Z,3.45
2023-04-15T16:53:43.037Z,3.58
2023-04-15T16:55:08.480Z,3.85
2023-04-15T16:56:31.951Z,3.72
2023-04-15T16:58:02.156Z,3.90
2023-04-15T16:59:27.337Z,3.60
2023-04-15T17:00:52.112Z,3.80
2023-04-15T17:02:16.104Z,3.42
2023-04-15T17:03:40.024Z,3.30
2023-04-15T17:05:03.697Z,3.85
2023-04-15T17:06:27.147Z,4.03
2023-04-15T17:07:50.583Z,4.38
2023-04-15T17:09:14.060Z,5.13
2023-04-15T17:10:39.364Z,2.80
2023-04-15T17:12:04.002Z,3.50
2023-04-15T17:13:30.863Z,2.85
2023-04-15T17:14:54.268Z,3.05
2023-04-15T17:16:17.830Z,3.40
2023-04-15T17:17:40.346Z,3.78
2023-04-15T17:19:04.107Z,3.33
2023-04-15T17:20:27.789Z,3.47
2023-04-15T17:21:54.827Z,3.25
2023-04-15T17:23:18.494Z,2.88
2023-04-15T17:24:41.985Z,3.40
2023-04-15T17:26:06.981Z,3.15
2023-04-15T17:27:32.591Z,3.22
2023-04-15T17:28:56.044Z,3.30
2023-04-15T17:30:20.171Z,3.72
2023-04-15T17:31:43.605Z,3.35
2023-04-15T17:33:59.084Z,3.63
2023-04-15T17:34:51.624Z,3.15
2023-04-15T17:36:14.085Z,3.25
2023-04-15T17:37:37.570Z,3.17
2023-04-15T17:39:01.040Z,3.38
2023-04-15T17:40:24.446Z,3.45
2023-04-15T17:41:49.205Z,3.63
2023-04-15T17:43:11.640Z,3.25
2023-04-15T17:44:35.880Z,3.88
2023-04-15T17:45:58.729Z,3.58
2023-04-15T17:47:22.232Z,4.00
2023-04-15T17:48:45.717Z,3.42
2023-04-15T17:50:10.315Z,4.07
2023-04-15T17:51:33.765Z,3.40
2023-04-15T17:52:58.287Z,3.47
2023-04-15T17:54:21.695Z,3.90
2023-04-15T17:55:45.258Z,3.05
2023-04-15T17:57:12.512Z,3.92
2023-04-15T17:58:35.896Z,3.58
2023-04-15T18:00:01.490Z,3.80
2023-04-15T18:01:25.700Z,3.67
2023-04-15T18:02:49.697Z,3.80
2023-04-15T18:04:13.449Z,4.30
2023-04-15T18:05:37.020Z,3.83
2023-04-15T18:07:00.578Z,3.95
2023-04-15T18:08:23.951Z,5.90
2023-04-15T18:09:47.473Z,4.95
2023-04-15T18:11:12.508Z,4.40
2023-04-15T18:12:37.361Z,5.03
2023-04-15T18:14:00.912Z,4.43
2023-04-15T18:15:24.446Z,3.60
2023-04-15T18:16:49.207Z,4.28
2023-04-15T18:18:17.265Z,4.07
2023-04-15T18:19:40.802Z,4.63
2023-04-15T18:21:05.456Z,4.22
2023-04-15T18:22:30.467Z,4.38
2023-04-15T18:23:54.029Z,4.57
2023-04-15T18:25:17.806Z,4.57
2023-04-15T18:26:41.197Z,4.78
2023-04-15T18:28:06.182Z,4.47
2023-04-15T18:29:29.010Z,4.57
2023-04-15T18:30:52.831Z,3.80
2023-04-15T18:32:16.435Z,4.10
2023-04-15T18:33:41.135Z,4.63
2023-04-15T18:35:06.501Z,4.00